createdAt,value
2022-12-25T00:00:06.533Z,96.14
2022-12-25T00:02:34.781Z,96.32
2022-12-25T00:05:03.218Z,96.08
2022-12-25T00:07:31.817Z,95.82
2022-12-25T00:10:01.278Z,95.88
2022-12-25T00:12:29.422Z,96.06
2022-12-25T00:14:57.696Z,95.62
2022-12-25T00:17:25.906Z,95.54
2022-12-25T00:19:54.051Z,95.33
2022-12-25T00:22:22.176Z,95.42
2022-12-25T00:24:50.650Z,95.16
2022-12-25T00:27:20.108Z,94.77
2022-12-25T00:29:48.205Z,94.61
2022-12-25T00:32:16.337Z,94.79
2022-12-25T00:34:44.496Z,95.13
2022-12-25T00:37:12.772Z,95.13
2022-12-25T00:39:41.015Z,95.31
2022-12-25T00:42:20.012Z,95.33
2022-12-25T00:44:50.776Z,95.51
2022-12-25T00:47:19.512Z,95.58
2022-12-25T00:49:47.715Z,95.68
2022-12-25T00:52:16.299Z,95.73
2022-12-25T00:54:44.443Z,95.72
2022-12-25T00:57:12.566Z,95.92
2022-12-25T00:59:40.739Z,96.15
2022-12-25T01:02:25.794Z,96.03
2022-12-25T01:04:56.600Z,96.24
2022-12-25T01:07:27.423Z,96.35
2022-12-25T01:10:12.935Z,96.30
2022-12-25T01:12:44.194Z,96.32
2022-12-25T01:15:14.396Z,96.28
2022-12-25T01:17:44.964Z,96.32
2022-12-25T01:20:16.092Z,96.33
2022-12-25T01:22:44.654Z,96.39
2022-12-25T01:25:14.045Z,96.51
2022-12-25T01:27:43.193Z,96.45
2022-12-25T01:30:12.893Z,96.23
2022-12-25T01:32:41.020Z,95.99
2022-12-25T01:35:12.017Z,95.89
2022-12-25T01:37:41.198Z,95.92
2022-12-25T01:40:10.823Z,96.17
2022-12-25T01:42:39.127Z,96.08
2022-12-25T01:45:35.770Z,96.10
2022-12-25T01:48:09.862Z,96.22
2022-12-25T01:50:45.371Z,96.35
2022-12-25T01:53:13.981Z,96.35
2022-12-25T01:55:45.944Z,96.45
2022-12-25T01:58:14.608Z,96.48
2022-12-25T02:00:42.975Z,96.64
2022-12-25T02:03:11.260Z,96.69
2022-12-25T02:05:41.227Z,96.74
2022-12-25T02:08:13.607Z,96.69
2022-12-25T02:10:44.625Z,96.87
2022-12-25T02:13:15.546Z,96.71
2022-12-25T02:15:56.544Z,97.00
2022-12-25T02:18:38.566Z,97.12
2022-12-25T02:21:53.210Z,97.33
2022-12-25T02:24:55.189Z,97.42
2022-12-25T02:27:55.864Z,97.53
2022-12-25T02:30:25.551Z,97.72
2022-12-25T02:33:15.072Z,97.92
2022-12-25T02:35:48.321Z,98.22
2022-12-25T02:38:22.582Z,98.44
2022-12-25T02:40:56.169Z,98.91
2022-12-25T02:43:49.411Z,98.89
2022-12-25T02:46:41.879Z,98.61
2022-12-25T02:49:33.617Z,98.54
2022-12-25T02:52:27.615Z,98.37
2022-12-25T02:55:21.337Z,98.39
2022-12-25T02:58:12.221Z,98.55
2022-12-25T03:01:13.276Z,98.44
2022-12-25T03:04:04.106Z,98.45
2022-12-25T03:06:43.771Z,98.47
2022-12-25T03:09:36.386Z,98.36
2022-12-25T03:12:14.420Z,98.21
2022-12-25T03:15:02.473Z,98.19
2022-12-25T03:17:33.284Z,98.03
2022-12-25T03:20:20.748Z,97.78
2022-12-25T03:23:08.167Z,97.71
2022-12-25T03:25:53.800Z,97.69
2022-12-25T03:28:21.869Z,97.58
2022-12-25T03:31:13.563Z,97.50
2022-12-25T03:34:21.029Z,97.30
2022-12-25T03:37:17.759Z,97.30
2022-12-25T03:40:13.391Z,97.23
2022-12-25T03:43:10.618Z,97.37
2022-12-25T03:46:04.832Z,97.08
2022-12-25T03:48:56.613Z,97.05
2022-12-25T03:51:53.193Z,96.96
2022-12-25T03:54:47.434Z,96.72
2022-12-25T03:57:33.758Z,96.39
2022-12-25T04:00:15.768Z,96.06
2022-12-25T04:03:01.811Z,95.73
2022-12-25T04:05:47.689Z,95.38
2022-12-25T04:08:33.386Z,95.54
2022-12-25T04:11:34.975Z,95.41
2022-12-25T04:14:20.748Z,95.64
2022-12-25T04:17:06.596Z,96.06
2022-12-25T04:19:54.758Z,95.56
2022-12-25T04:22:40.235Z,95.40
2022-12-25T04:25:26.579Z,95.66
2022-12-25T04:28:19.247Z,95.46
2022-12-25T04:31:05.441Z,95.83
2022-12-25T04:33:51.012Z,95.90
2022-12-25T04:36:19.153Z,96.13
2022-12-25T04:38:47.285Z,96.31
2022-12-25T04:41:16.007Z,96.58
2022-12-25T04:43:45.492Z,96.58
2022-12-25T04:46:13.742Z,96.90
2022-12-25T04:48:41.915Z,97.14
2022-12-25T04:51:16.191Z,97.51
2022-12-25T04:53:44.822Z,97.71
2022-12-25T04:56:13.023Z,98.14
2022-12-25T04:58:41.311Z,98.38
2022-12-25T05:01:11.077Z,98.52
2022-12-25T05:03:40.054Z,98.53
2022-12-25T05:06:08.947Z,98.56
2022-12-25T05:08:37.957Z,98.49
2022-12-25T05:11:11.695Z,98.41
2022-12-25T05:13:40.722Z,98.57
2022-12-25T05:16:15.356Z,98.33
2022-12-25T05:18:44.143Z,98.40
2022-12-25T05:21:13.488Z,98.32
2022-12-25T05:23:48.263Z,98.27
2022-12-25T05:26:18.225Z,98.19
2022-12-25T05:28:46.875Z,98.23
2022-12-25T05:31:16.865Z,98.22
2022-12-25T05:33:45.116Z,98.34
2022-12-25T05:36:14.207Z,98.52
2022-12-25T05:38:42.338Z,98.47
2022-12-25T05:41:10.767Z,98.53
2022-12-25T05:43:38.895Z,98.38
2022-12-25T05:46:08.243Z,98.51
2022-12-25T05:48:39.446Z,98.39
2022-12-25T05:51:09.890Z,98.23
2022-12-25T05:53:39.135Z,98.07
2022-12-25T05:56:09.776Z,98.05
2022-12-25T05:58:42.115Z,98.42
2022-12-25T06:01:17.098Z,98.25
2022-12-25T06:03:46.872Z,98.37
2022-12-25T06:06:15.835Z,98.35
2022-12-25T06:08:44.549Z,98.29
2022-12-25T06:11:15.824Z,98.14
2022-12-25T06:13:44.121Z,97.77
2022-12-25T06:16:13.713Z,97.51
2022-12-25T06:18:51.834Z,97.05
2022-12-25T06:21:19.958Z,96.85
2022-12-25T06:23:48.287Z,96.97
2022-12-25T06:26:19.497Z,96.74
2022-12-25T06:28:47.990Z,96.76
2022-12-25T06:31:20.498Z,96.87
2022-12-25T06:33:50.410Z,96.99
2022-12-25T06:36:21.800Z,96.92
2022-12-25T06:38:50.152Z,97.04
2022-12-25T06:41:21.159Z,96.86
2022-12-25T06:43:50.479Z,96.99
2022-12-25T06:46:19.570Z,97.05
2022-12-25T06:48:49.592Z,97.07
2022-12-25T06:51:21.740Z,97.17
2022-12-25T06:53:51.609Z,97.40
2022-12-25T06:56:24.045Z,97.58
2022-12-25T06:58:54.563Z,97.69
2022-12-25T07:01:27.658Z,97.77
2022-12-25T07:04:00.006Z,98.00
2022-12-25T07:06:30.070Z,98.02
2022-12-25T07:08:58.364Z,98.05
2022-12-25T07:11:26.929Z,98.10
2022-12-25T07:13:55.075Z,98.10
2022-12-25T07:16:23.428Z,97.97
2022-12-25T07:18:51.600Z,97.71
2022-12-25T07:21:22.407Z,97.79
2022-12-25T07:23:51.967Z,97.73
2022-12-25T07:26:20.910Z,97.26
2022-12-25T07:28:49.050Z,97.18
2022-12-25T07:31:19.422Z,96.94
2022-12-25T07:33:47.828Z,96.24
2022-12-25T07:36:16.836Z,95.93
2022-12-25T07:38:45.725Z,95.80
2022-12-25T07:41:15.210Z,96.12
2022-12-25T07:43:43.547Z,96.03
2022-12-25T07:46:12.207Z,95.90
2022-12-25T07:48:40.401Z,95.76
2022-12-25T07:51:14.392Z,95.36
2022-12-25T07:53:43.534Z,95.36
2022-12-25T07:56:17.057Z,95.29
2022-12-25T07:58:45.565Z,94.95
2022-12-25T08:01:17.669Z,94.71
2022-12-25T08:03:50.740Z,94.26
2022-12-25T08:06:20.252Z,94.47
2022-12-25T08:08:48.736Z,93.84
2022-12-25T08:11:18.212Z,92.81
2022-12-25T08:13:46.383Z,92.12
2022-12-25T08:16:14.582Z,92.39
2022-12-25T08:18:43.020Z,92.82
2022-12-25T08:21:14.267Z,92.64
2022-12-25T08:23:46.830Z,93.27
2022-12-25T08:26:19.280Z,93.72
2022-12-25T08:28:47.976Z,93.76
2022-12-25T08:31:19.319Z,93.88
2022-12-25T08:33:49.286Z,94.21
2022-12-25T08:36:18.346Z,93.03
2022-12-25T08:38:47.445Z,93.18
2022-12-25T08:41:17.634Z,93.46
2022-12-25T08:43:46.395Z,94.23
2022-12-25T08:46:14.725Z,93.95
2022-12-25T08:48:43.627Z,94.22
2022-12-25T08:51:15.603Z,89.95
2022-12-25T08:53:44.439Z,88.13
2022-12-25T08:56:13.265Z,88.88
2022-12-25T08:58:43.998Z,88.95
2022-12-25T09:01:13.076Z,88.36
2022-12-25T09:03:41.841Z,86.75
2022-12-25T09:06:13.580Z,87.01
2022-12-25T09:08:48.520Z,86.64
2022-12-25T09:11:19.069Z,86.30
2022-12-25T09:13:49.771Z,86.87
2022-12-25T09:16:22.116Z,85.31
2022-12-25T09:18:51.118Z,84.94
2022-12-25T09:21:20.363Z,84.28
2022-12-25T09:23:48.791Z,82.55
2022-12-25T09:26:19.448Z,81.92
2022-12-25T09:28:52.294Z,80.17
2022-12-25T09:31:22.665Z,79.47
2022-12-25T09:33:51.361Z,80.12
2022-12-25T09:36:21.285Z,78.97
2022-12-25T09:38:49.481Z,78.82
2022-12-25T09:41:27.719Z,79.31
2022-12-25T09:44:04.797Z,79.38
2022-12-25T09:46:43.094Z,78.39
2022-12-25T09:49:21.413Z,79.68
2022-12-25T09:51:58.032Z,79.17
2022-12-25T09:54:40.602Z,78.74
2022-12-25T09:57:12.931Z,78.12
2022-12-25T09:59:45.003Z,78.34
2022-12-25T10:02:43.872Z,78.08
2022-12-25T10:05:48.643Z,78.26
2022-12-25T10:08:33.192Z,77.95
2022-12-25T10:11:17.117Z,77.11
2022-12-25T10:14:08.551Z,76.86
2022-12-25T10:16:54.203Z,76.12
2022-12-25T10:19:38.264Z,76.15
2022-12-25T10:22:17.747Z,77.18
2022-12-25T10:24:51.058Z,77.08
2022-12-25T10:27:26.369Z,77.55
2022-12-25T10:29:55.553Z,77.99
2022-12-25T10:32:25.031Z,77.53
2022-12-25T10:34:53.237Z,77.15
2022-12-25T10:37:21.459Z,77.07
2022-12-25T10:39:49.574Z,77.30
2022-12-25T10:42:38.491Z,77.27
2022-12-25T10:45:10.114Z,76.19
2022-12-25T10:47:42.568Z,76.06
2022-12-25T10:50:19.283Z,75.27
2022-12-25T10:53:04.830Z,75.96
2022-12-25T10:55:33.978Z,76.14
2022-12-25T10:58:02.877Z,75.87
2022-12-25T11:00:33.620Z,76.69
2022-12-25T11:03:03.425Z,76.05
2022-12-25T11:05:34.016Z,75.65
2022-12-25T11:08:04.727Z,75.54
2022-12-25T11:10:36.748Z,76.40
2022-12-25T11:13:09.000Z,76.09
2022-12-25T11:15:41.391Z,76.33
2022-12-25T11:18:23.120Z,76.24
2022-12-25T11:20:53.097Z,76.47
2022-12-25T11:23:24.069Z,76.91
2022-12-25T11:26:00.962Z,77.09
2022-12-25T11:28:32.471Z,76.88
2022-12-25T11:31:06.704Z,76.97
2022-12-25T11:33:41.925Z,77.71
2022-12-25T11:36:20.664Z,78.04
2022-12-25T11:38:48.949Z,77.53
2022-12-25T11:41:23.180Z,77.31
2022-12-25T11:43:58.013Z,77.50
2022-12-25T11:46:32.049Z,76.76
2022-12-25T11:49:08.218Z,76.32
2022-12-25T11:51:42.810Z,76.29
2022-12-25T11:54:24.101Z,77.02
2022-12-25T11:56:53.296Z,76.98
2022-12-25T11:59:29.265Z,77.30
2022-12-25T12:02:04.450Z,77.63
2022-12-25T12:04:43.113Z,77.49
2022-12-25T12:07:25.568Z,77.66
2022-12-25T12:10:06.848Z,77.18
2022-12-25T12:12:48.770Z,76.38
2022-12-25T12:15:30.731Z,74.50
2022-12-25T12:18:10.764Z,75.15
2022-12-25T12:20:40.421Z,75.51
2022-12-25T12:23:17.658Z,75.63
2022-12-25T12:25:46.635Z,74.54
2022-12-25T12:28:25.736Z,74.71
2022-12-25T12:31:04.638Z,75.22
2022-12-25T12:33:38.693Z,75.15
2022-12-25T12:36:13.929Z,75.66
2022-12-25T12:38:44.321Z,75.79
2022-12-25T12:41:15.313Z,75.68
2022-12-25T12:43:48.166Z,75.35
2022-12-25T12:46:27.898Z,75.38
2022-12-25T12:49:20.527Z,75.09
2022-12-25T12:51:52.153Z,76.08
2022-12-25T12:54:24.077Z,75.86
2022-12-25T12:57:04.345Z,76.05
2022-12-25T12:59:43.487Z,76.51
2022-12-25T13:02:51.056Z,76.72
2022-12-25T13:05:34.904Z,77.21
2022-12-25T13:08:45.928Z,77.74
2022-12-25T13:11:21.141Z,78.35
2022-12-25T13:13:52.129Z,78.96
2022-12-25T13:16:30.992Z,79.23
2022-12-25T13:19:01.810Z,79.75
2022-12-25T13:21:31.784Z,79.60
2022-12-25T13:24:04.630Z,79.48
2022-12-25T13:26:32.840Z,79.29
2022-12-25T13:29:02.868Z,79.72
2022-12-25T13:31:33.337Z,79.54
2022-12-25T13:34:06.782Z,78.99
2022-12-25T13:36:42.538Z,79.33
2022-12-25T13:39:19.128Z,79.32
2022-12-25T13:42:10.320Z,78.67
2022-12-25T13:44:51.360Z,79.12
2022-12-25T13:47:25.164Z,78.52
2022-12-25T13:49:56.570Z,78.41
2022-12-25T13:52:33.920Z,79.44
2022-12-25T13:55:11.912Z,80.12
2022-12-25T13:57:45.996Z,80.78
2022-12-25T14:00:22.205Z,81.45
2022-12-25T14:02:51.255Z,81.85
2022-12-25T14:05:34.555Z,82.28
2022-12-25T14:08:16.204Z,81.91
2022-12-25T14:10:51.717Z,81.99
2022-12-25T14:13:24.306Z,82.10
2022-12-25T14:15:53.349Z,82.17
2022-12-25T14:18:24.550Z,82.21
2022-12-25T14:21:02.219Z,81.74
2022-12-25T14:23:42.543Z,81.38
2022-12-25T14:26:19.284Z,81.68
2022-12-25T14:28:50.801Z,82.52
2022-12-25T14:31:20.012Z,81.91
2022-12-25T14:33:49.592Z,81.96
2022-12-25T14:36:18.087Z,82.76
2022-12-25T14:38:56.993Z,83.38
2022-12-25T14:41:37.727Z,83.73
2022-12-25T14:44:28.086Z,84.48
2022-12-25T14:47:14.047Z,85.33
2022-12-25T14:49:43.159Z,86.02
2022-12-25T14:52:20.548Z,86.53
2022-12-25T14:54:52.027Z,86.43
2022-12-25T14:57:29.197Z,86.62
2022-12-25T15:00:01.538Z,87.19
2022-12-25T15:02:45.566Z,87.68
2022-12-25T15:05:33.814Z,87.63
2022-12-25T15:08:21.149Z,88.12
2022-12-25T15:11:00.356Z,88.04
2022-12-25T15:13:32.604Z,88.17
2022-12-25T15:16:12.949Z,88.63
2022-12-25T15:18:44.559Z,88.11
2022-12-25T15:21:18.656Z,88.27
2022-12-25T15:23:47.243Z,88.86
2022-12-25T15:26:16.632Z,89.13
2022-12-25T15:28:46.155Z,89.53
2022-12-25T15:31:23.406Z,90.06
2022-12-25T15:33:52.014Z,90.32
2022-12-25T15:36:20.235Z,90.64
2022-12-25T15:38:49.494Z,90.87
2022-12-25T15:41:35.501Z,91.02
2022-12-25T15:44:07.672Z,91.42
2022-12-25T15:46:36.139Z,91.48
2022-12-25T15:49:04.484Z,91.69
2022-12-25T15:51:32.755Z,91.99
2022-12-25T15:54:01.177Z,92.03
2022-12-25T15:56:31.033Z,92.21
2022-12-25T15:58:59.227Z,92.19
2022-12-25T16:01:28.848Z,92.41
2022-12-25T16:03:57.154Z,92.82
2022-12-25T16:06:25.311Z,92.84
2022-12-25T16:08:53.523Z,92.81
2022-12-25T16:11:21.719Z,93.13
2022-12-25T16:13:50.373Z,93.08
2022-12-25T16:16:18.542Z,93.15
2022-12-25T16:18:48.077Z,93.44
2022-12-25T16:21:21.305Z,93.44
2022-12-25T16:23:49.581Z,93.33
2022-12-25T16:26:17.980Z,93.20
2022-12-25T16:28:46.349Z,92.92
2022-12-25T16:31:14.588Z,93.07
2022-12-25T16:33:42.721Z,92.94
2022-12-25T16:36:12.496Z,93.03
2022-12-25T16:38:40.611Z,93.43
2022-12-25T16:41:09.407Z,93.77
2022-12-25T16:43:37.516Z,93.69
2022-12-25T16:46:11.455Z,93.99
2022-12-25T16:48:39.667Z,93.85
2022-12-25T16:51:14.726Z,93.70
2022-12-25T16:53:43.614Z,93.90
2022-12-25T16:56:16.116Z,93.87
2022-12-25T16:58:46.884Z,93.90
2022-12-25T17:01:17.710Z,93.63
2022-12-25T17:03:47.170Z,93.85
2022-12-25T17:06:19.827Z,94.15
2022-12-25T17:08:48.751Z,94.02
2022-12-25T17:11:19.083Z,94.36
2022-12-25T17:13:48.406Z,94.39
2022-12-25T17:16:20.039Z,94.35
2022-12-25T17:18:48.476Z,94.50
2022-12-25T17:21:17.961Z,94.49
2022-12-25T17:23:46.114Z,94.58
2022-12-25T17:26:14.266Z,94.83
2022-12-25T17:28:42.689Z,94.98
2022-12-25T17:31:14.358Z,95.19
2022-12-25T17:33:45.313Z,95.08
2022-12-25T17:36:18.254Z,95.10
2022-12-25T17:38:47.482Z,95.19
2022-12-25T17:41:18.313Z,95.34
2022-12-25T17:43:47.308Z,95.35
2022-12-25T17:46:18.859Z,95.24
2022-12-25T17:48:49.943Z,95.19
2022-12-25T17:51:22.766Z,94.37
2022-12-25T17:53:53.994Z,93.84
2022-12-25T17:56:24.008Z,93.42
2022-12-25T17:58:54.442Z,92.91
2022-12-25T18:01:24.821Z,92.35
2022-12-25T18:03:53.852Z,92.20
2022-12-25T18:06:27.819Z,92.09
2022-12-25T18:08:57.633Z,92.33
2022-12-25T18:11:32.606Z,91.75
2022-12-25T18:14:04.819Z,91.42
2022-12-25T18:16:37.317Z,91.05
2022-12-25T18:19:05.853Z,89.77
2022-12-25T18:21:35.608Z,89.05
2022-12-25T18:24:05.497Z,89.38
2022-12-25T18:26:33.993Z,89.75
2022-12-25T18:29:02.205Z,89.23
2022-12-25T18:31:31.130Z,87.71
2022-12-25T18:34:00.472Z,87.10
2022-12-25T18:36:30.578Z,86.57
2022-12-25T18:39:00.813Z,86.33
2022-12-25T18:41:30.285Z,86.15
2022-12-25T18:44:00.841Z,85.81
2022-12-25T18:46:29.621Z,86.32
2022-12-25T18:49:00.968Z,85.01
2022-12-25T18:51:34.928Z,85.49
2022-12-25T18:54:06.675Z,85.06
2022-12-25T18:56:34.810Z,84.71
2022-12-25T18:59:03.449Z,84.00
2022-12-25T19:01:31.638Z,83.39
2022-12-25T19:04:05.075Z,82.82
2022-12-25T19:06:33.919Z,82.75
2022-12-25T19:09:09.231Z,81.93
2022-12-25T19:11:45.966Z,81.10
2022-12-25T19:14:15.930Z,81.08
2022-12-25T19:16:44.303Z,81.58
2022-12-25T19:19:13.154Z,81.75
2022-12-25T19:21:41.437Z,81.50
2022-12-25T19:24:09.777Z,81.32
2022-12-25T19:26:39.329Z,80.41
2022-12-25T19:29:07.522Z,80.49
2022-12-25T19:31:37.144Z,81.28
2022-12-25T19:34:06.206Z,81.95
2022-12-25T19:36:34.748Z,82.22
2022-12-25T19:39:02.981Z,81.55
2022-12-25T19:41:31.394Z,81.24
2022-12-25T19:44:02.043Z,80.68
2022-12-25T19:46:33.262Z,79.08
2022-12-25T19:49:04.227Z,79.77
2022-12-25T19:51:36.955Z,80.13
2022-12-25T19:54:07.179Z,80.26
2022-12-25T19:56:36.087Z,79.70
2022-12-25T19:59:05.573Z,79.28
2022-12-25T20:01:34.322Z,79.11
2022-12-25T20:04:02.747Z,79.01
2022-12-25T20:06:33.904Z,78.92
2022-12-25T20:09:06.529Z,78.75
2022-12-25T20:11:36.619Z,78.63
2022-12-25T20:14:07.637Z,78.87
2022-12-25T20:16:39.648Z,79.01
2022-12-25T20:19:08.976Z,78.66
2022-12-25T20:21:37.120Z,79.05
2022-12-25T20:24:09.113Z,78.91
2022-12-25T20:26:38.378Z,78.70
2022-12-25T20:29:08.173Z,78.15
2022-12-25T20:31:37.051Z,78.18
2022-12-25T20:34:08.895Z,77.55
2022-12-25T20:36:38.308Z,77.90
2022-12-25T20:39:09.352Z,77.61
2022-12-25T20:41:38.330Z,78.16
2022-12-25T20:44:09.884Z,77.75
2022-12-25T20:46:38.124Z,78.17
2022-12-25T20:49:06.383Z,77.25
2022-12-25T20:51:34.465Z,77.14
2022-12-25T20:54:08.418Z,77.48
2022-12-25T20:56:37.553Z,76.86
2022-12-25T20:59:06.931Z,77.01
2022-12-25T21:01:35.159Z,77.50
2022-12-25T21:04:03.495Z,77.16
2022-12-25T21:06:31.742Z,76.63
2022-12-25T21:08:59.947Z,76.69
2022-12-25T21:11:30.398Z,76.95
2022-12-25T21:13:59.133Z,77.70
2022-12-25T21:16:29.844Z,77.41
2022-12-25T21:18:58.040Z,76.76
2022-12-25T21:21:26.766Z,76.56
2022-12-25T21:23:57.777Z,76.99
2022-12-25T21:26:29.336Z,76.61
2022-12-25T21:29:01.127Z,76.48
2022-12-25T21:31:51.706Z,76.03
2022-12-25T21:34:18.922Z,75.96
2022-12-25T21:36:47.044Z,75.94
2022-12-25T21:39:15.649Z,76.01
2022-12-25T21:41:43.794Z,76.22
2022-12-25T21:44:12.718Z,76.18
2022-12-25T21:46:42.350Z,75.95
2022-12-25T21:49:10.759Z,76.09
2022-12-25T21:51:56.410Z,75.89
2022-12-25T21:54:24.795Z,75.40
2022-12-25T21:56:52.832Z,75.33
2022-12-25T21:59:22.673Z,75.19
2022-12-25T22:01:54.176Z,75.34
2022-12-25T22:04:24.693Z,75.80
2022-12-25T22:07:10.759Z,75.81
2022-12-25T22:09:39.006Z,75.94
2022-12-25T22:12:31.973Z,75.86
2022-12-25T22:15:06.492Z,75.89
2022-12-25T22:17:56.519Z,75.61
2022-12-25T22:20:28.093Z,75.56
2022-12-25T22:22:56.732Z,75.20
2022-12-25T22:25:25.714Z,74.66
2022-12-25T22:27:54.586Z,75.10
2022-12-25T22:30:26.553Z,74.71
2022-12-25T22:32:56.792Z,74.96
2022-12-25T22:35:25.455Z,75.01
2022-12-25T22:37:54.363Z,74.89
2022-12-25T22:40:24.170Z,74.68
2022-12-25T22:42:55.850Z,74.87
2022-12-25T22:45:24.355Z,74.33
2022-12-25T22:47:52.576Z,75.31
2022-12-25T22:50:22.115Z,74.78
2022-12-25T22:52:50.300Z,73.91
2022-12-25T22:55:20.534Z,73.96
2022-12-25T22:57:49.246Z,74.78
2022-12-25T23:00:17.511Z,75.14
2022-12-25T23:02:45.901Z,75.24
2022-12-25T23:05:14.603Z,75.23
2022-12-25T23:07:44.088Z,75.66
2022-12-25T23:10:13.046Z,75.15
2022-12-25T23:12:58.623Z,74.89
2022-12-25T23:15:27.571Z,75.29
2022-12-25T23:18:13.476Z,75.19
2022-12-25T23:20:59.475Z,74.81
2022-12-25T23:23:46.429Z,74.37
2022-12-25T23:26:16.883Z,74.54
2022-12-25T23:29:02.861Z,75.62
2022-12-25T23:31:37.054Z,75.26
2022-12-25T23:34:06.789Z,75.17
2022-12-25T23:36:35.484Z,75.95
2022-12-25T23:39:10.169Z,76.00
2022-12-25T23:41:39.391Z,75.90
2022-12-25T23:44:07.958Z,75.96
2022-12-25T23:46:37.041Z,75.52
2022-12-25T23:49:05.820Z,76.09
2022-12-25T23:51:36.455Z,76.32
2022-12-25T23:54:06.909Z,77.14
2022-12-25T23:56:35.323Z,75.91
2022-12-25T23:59:03.751Z,76.09
